sensor_id;sensor_type;location;lat;lon;timestamp;temperature;humidity
30371;DHT22;17164;48.590;11.410;2023-07-29T00:01:41;17.40;99.90
30371;DHT22;17164;48.590;11.410;2023-07-29T00:04:08;17.50;99.90
30371;DHT22;17164;48.590;11.410;2023-07-29T00:06:35;17.50;99.90
30371;DHT22;17164;48.590;11.410;2023-07-29T00:09:01;17.50;99.90
30371;DHT22;17164;48.590;11.410;2023-07-29T00:11:27;17.50;99.90
30371;DHT22;17164;48.590;11.410;2023-07-29T00:13:52;17.50;99.90
30371;DHT22;17164;48.590;11.410;2023-07-29T00:16:18;17.40;99.90
30371;DHT22;17164;48.590;11.410;2023-07-29T00:18:47;17.40;99.90
30371;DHT22;17164;48.590;11.410;2023-07-29T00:21:13;17.40;99.90
30371;DHT22;17164;48.590;11.410;2023-07-29T00:23:39;17.30;99.90
30371;DHT22;17164;48.590;11.410;2023-07-29T00:26:04;17.30;99.90
30371;DHT22;17164;48.590;11.410;2023-07-29T00:28:30;17.30;99.90
30371;DHT22;17164;48.590;11.410;2023-07-29T00:30:55;17.30;99.90
30371;DHT22;17164;48.590;11.410;2023-07-29T00:33:21;17.30;99.90
30371;DHT22;17164;48.590;11.410;2023-07-29T00:35:47;17.20;99.90
30371;DHT22;17164;48.590;11.410;2023-07-29T00:38:12;17.20;99.90
30371;DHT22;17164;48.590;11.410;2023-07-29T00:40:38;17.20;99.90
30371;DHT22;17164;48.590;11.410;2023-07-29T00:43:04;17.20;99.90
30371;DHT22;17164;48.590;11.410;2023-07-29T00:45:30;17.10;99.90
30371;DHT22;17164;48.590;11.410;2023-07-29T00:47:57;17.10;99.90
30371;DHT22;17164;48.590;11.410;2023-07-29T00:50:23;17.10;99.90
30371;DHT22;17164;48.590;11.410;2023-07-29T00:52:49;17.00;99.90
30371;DHT22;17164;48.590;11.410;2023-07-29T00:55:16;17.00;99.90
30371;DHT22;17164;48.590;11.410;2023-07-29T00:57:42;16.90;99.90
30371;DHT22;17164;48.590;11.410;2023-07-29T01:00:10;16.90;99.90
30371;DHT22;17164;48.590;11.410;2023-07-29T01:02:36;16.90;99.90
30371;DHT22;17164;48.590;11.410;2023-07-29T01:05:02;16.80;99.90
30371;DHT22;17164;48.590;11.410;2023-07-29T01:10:28;16.70;99.90
30371;DHT22;17164;48.590;11.410;2023-07-29T01:16:04;16.60;99.90
30371;DHT22;17164;48.590;11.410;2023-07-29T01:18:26;16.60;99.90
30371;DHT22;17164;48.590;11.410;2023-07-29T01:20:54;16.50;99.90
30371;DHT22;17164;48.590;11.410;2023-07-29T01:23:26;16.50;99.90
30371;DHT22;17164;48.590;11.410;2023-07-29T01:25:54;16.50;99.90
30371;DHT22;17164;48.590;11.410;2023-07-29T01:28:20;16.40;99.90
30371;DHT22;17164;48.590;11.410;2023-07-29T01:30:49;16.40;99.90
30371;DHT22;17164;48.590;11.410;2023-07-29T01:33:26;16.40;99.90
30371;DHT22;17164;48.590;11.410;2023-07-29T01:36:02;16.30;99.90
30371;DHT22;17164;48.590;11.410;2023-07-29T01:38:31;16.30;99.90
30371;DHT22;17164;48.590;11.410;2023-07-29T01:41:01;16.30;99.90
30371;DHT22;17164;48.590;11.410;2023-07-29T01:43:31;16.20;99.90
30371;DHT22;17164;48.590;11.410;2023-07-29T01:45:57;16.20;99.90
30371;DHT22;17164;48.590;11.410;2023-07-29T01:48:22;16.20;99.90
30371;DHT22;17164;48.590;11.410;2023-07-29T01:50:48;16.10;99.90
30371;DHT22;17164;48.590;11.410;2023-07-29T01:53:14;16.10;99.90
30371;DHT22;17164;48.590;11.410;2023-07-29T01:55:40;16.10;99.90
30371;DHT22;17164;48.590;11.410;2023-07-29T01:58:05;16.00;99.90
30371;DHT22;17164;48.590;11.410;2023-07-29T02:00:31;16.00;99.90
30371;DHT22;17164;48.590;11.410;2023-07-29T02:02:57;16.00;99.90
30371;DHT22;17164;48.590;11.410;2023-07-29T02:05:22;16.00;99.90
30371;DHT22;17164;48.590;11.410;2023-07-29T02:07:48;16.00;99.90
30371;DHT22;17164;48.590;11.410;2023-07-29T02:10:13;16.00;99.90
30371;DHT22;17164;48.590;11.410;2023-07-29T02:12:39;16.00;99.90
30371;DHT22;17164;48.590;11.410;2023-07-29T02:15:05;16.00;99.90
30371;DHT22;17164;48.590;11.410;2023-07-29T02:17:31;16.00;99.90
30371;DHT22;17164;48.590;11.410;2023-07-29T02:19:57;16.00;99.90
30371;DHT22;17164;48.590;11.410;2023-07-29T02:22:22;16.00;99.90
30371;DHT22;17164;48.590;11.410;2023-07-29T02:24:48;15.90;99.90
30371;DHT22;17164;48.590;11.410;2023-07-29T02:27:13;15.90;99.90
30371;DHT22;17164;48.590;11.410;2023-07-29T02:29:39;15.90;99.90
30371;DHT22;17164;48.590;11.410;2023-07-29T02:32:05;15.90;99.90
30371;DHT22;17164;48.590;11.410;2023-07-29T02:34:30;15.90;99.90
30371;DHT22;17164;48.590;11.410;2023-07-29T02:36:56;15.90;99.90
30371;DHT22;17164;48.590;11.410;2023-07-29T02:39:22;15.90;99.90
30371;DHT22;17164;48.590;11.410;2023-07-29T02:41:48;15.80;99.90
30371;DHT22;17164;48.590;11.410;2023-07-29T02:44:14;15.80;99.90
30371;DHT22;17164;48.590;11.410;2023-07-29T02:46:40;15.80;99.90
30371;DHT22;17164;48.590;11.410;2023-07-29T02:49:06;15.80;99.90
30371;DHT22;17164;48.590;11.410;2023-07-29T02:51:31;15.80;99.90
30371;DHT22;17164;48.590;11.410;2023-07-29T02:53:57;15.80;99.90
30371;DHT22;17164;48.590;11.410;2023-07-29T02:56:22;15.90;99.90
30371;DHT22;17164;48.590;11.410;2023-07-29T02:58:48;15.80;99.90
30371;DHT22;17164;48.590;11.410;2023-07-29T03:01:14;15.80;99.90
30371;DHT22;17164;48.590;11.410;2023-07-29T03:03:39;15.80;99.90
30371;DHT22;17164;48.590;11.410;2023-07-29T03:06:07;15.80;99.90
30371;DHT22;17164;48.590;11.410;2023-07-29T03:08:33;15.90;99.90
30371;DHT22;17164;48.590;11.410;2023-07-29T03:11:04;15.90;99.90
30371;DHT22;17164;48.590;11.410;2023-07-29T03:13:30;15.90;99.90
30371;DHT22;17164;48.590;11.410;2023-07-29T03:16:11;15.90;99.90
30371;DHT22;17164;48.590;11.410;2023-07-29T03:18:37;15.90;99.90
30371;DHT22;17164;48.590;11.410;2023-07-29T03:21:03;15.90;99.90
30371;DHT22;17164;48.590;11.410;2023-07-29T03:23:29;16.00;99.90
30371;DHT22;17164;48.590;11.410;2023-07-29T03:25:56;16.00;99.90
30371;DHT22;17164;48.590;11.410;2023-07-29T03:28:28;15.90;99.90
30371;DHT22;17164;48.590;11.410;2023-07-29T03:30:54;16.00;99.90
30371;DHT22;17164;48.590;11.410;2023-07-29T03:33:20;15.90;99.90
30371;DHT22;17164;48.590;11.410;2023-07-29T03:35:46;16.00;99.90
30371;DHT22;17164;48.590;11.410;2023-07-29T03:38:12;15.90;99.90
30371;DHT22;17164;48.590;11.410;2023-07-29T03:40:39;15.90;99.90
30371;DHT22;17164;48.590;11.410;2023-07-29T03:43:05;15.90;99.90
30371;DHT22;17164;48.590;11.410;2023-07-29T03:45:31;16.00;99.90
30371;DHT22;17164;48.590;11.410;2023-07-29T03:47:56;15.90;99.90
30371;DHT22;17164;48.590;11.410;2023-07-29T03:50:22;16.00;99.90
30371;DHT22;17164;48.590;11.410;2023-07-29T03:52:48;16.00;99.90
30371;DHT22;17164;48.590;11.410;2023-07-29T03:55:13;16.00;99.90
30371;DHT22;17164;48.590;11.410;2023-07-29T03:57:39;16.00;99.90
30371;DHT22;17164;48.590;11.410;2023-07-29T04:00:05;16.00;99.90
30371;DHT22;17164;48.590;11.410;2023-07-29T04:02:31;16.00;99.90
30371;DHT22;17164;48.590;11.410;2023-07-29T04:04:56;16.00;99.90
30371;DHT22;17164;48.590;11.410;2023-07-29T04:07:22;16.00;99.90
30371;DHT22;17164;48.590;11.410;2023-07-29T04:09:48;16.10;99.90
30371;DHT22;17164;48.590;11.410;2023-07-29T04:12:14;16.10;99.90
30371;DHT22;17164;48.590;11.410;2023-07-29T04:14:40;16.10;99.90
30371;DHT22;17164;48.590;11.410;2023-07-29T04:17:06;16.10;99.90
30371;DHT22;17164;48.590;11.410;2023-07-29T04:19:32;16.20;99.90
30371;DHT22;17164;48.590;11.410;2023-07-29T04:21:57;16.20;99.90
30371;DHT22;17164;48.590;11.410;2023-07-29T04:24:23;16.20;99.90
30371;DHT22;17164;48.590;11.410;2023-07-29T04:26:49;16.20;99.90
30371;DHT22;17164;48.590;11.410;2023-07-29T04:29:15;16.10;99.90
30371;DHT22;17164;48.590;11.410;2023-07-29T04:31:40;16.10;99.90
30371;DHT22;17164;48.590;11.410;2023-07-29T04:34:06;16.10;99.90
30371;DHT22;17164;48.590;11.410;2023-07-29T04:36:32;16.10;99.90
30371;DHT22;17164;48.590;11.410;2023-07-29T04:38:58;16.10;99.90
30371;DHT22;17164;48.590;11.410;2023-07-29T04:41:23;16.10;99.90
30371;DHT22;17164;48.590;11.410;2023-07-29T04:43:49;16.10;99.90
30371;DHT22;17164;48.590;11.410;2023-07-29T04:46:15;16.10;99.90
30371;DHT22;17164;48.590;11.410;2023-07-29T04:48:41;16.10;99.90
30371;DHT22;17164;48.590;11.410;2023-07-29T04:51:06;16.20;99.90
30371;DHT22;17164;48.590;11.410;2023-07-29T04:53:32;16.20;99.90
30371;DHT22;17164;48.590;11.410;2023-07-29T04:55:58;16.30;99.90
30371;DHT22;17164;48.590;11.410;2023-07-29T04:58:23;16.30;99.90
30371;DHT22;17164;48.590;11.410;2023-07-29T05:00:49;16.30;99.90
30371;DHT22;17164;48.590;11.410;2023-07-29T05:03:15;16.40;99.90
30371;DHT22;17164;48.590;11.410;2023-07-29T05:05:40;16.40;99.90
30371;DHT22;17164;48.590;11.410;2023-07-29T05:08:06;16.50;99.90
30371;DHT22;17164;48.590;11.410;2023-07-29T05:10:32;16.50;99.90
30371;DHT22;17164;48.590;11.410;2023-07-29T05:12:57;16.50;99.90
30371;DHT22;17164;48.590;11.410;2023-07-29T05:15:23;16.60;99.90
30371;DHT22;17164;48.590;11.410;2023-07-29T05:17:48;16.70;99.90
30371;DHT22;17164;48.590;11.410;2023-07-29T05:20:14;16.80;99.90
30371;DHT22;17164;48.590;11.410;2023-07-29T05:22:39;16.90;99.90
30371;DHT22;17164;48.590;11.410;2023-07-29T05:25:05;17.00;99.90
30371;DHT22;17164;48.590;11.410;2023-07-29T05:27:31;17.10;99.90
30371;DHT22;17164;48.590;11.410;2023-07-29T05:29:57;17.20;99.90
30371;DHT22;17164;48.590;11.410;2023-07-29T05:32:22;17.30;99.90
30371;DHT22;17164;48.590;11.410;2023-07-29T05:34:48;17.40;99.90
30371;DHT22;17164;48.590;11.410;2023-07-29T05:37:14;17.50;99.90
30371;DHT22;17164;48.590;11.410;2023-07-29T05:39:39;17.50;99.90
30371;DHT22;17164;48.590;11.410;2023-07-29T05:42:05;17.60;99.90
30371;DHT22;17164;48.590;11.410;2023-07-29T05:44:31;17.70;99.90
30371;DHT22;17164;48.590;11.410;2023-07-29T05:46:57;17.70;99.90
30371;DHT22;17164;48.590;11.410;2023-07-29T05:49:23;17.70;99.90
30371;DHT22;17164;48.590;11.410;2023-07-29T05:51:48;17.80;99.90
30371;DHT22;17164;48.590;11.410;2023-07-29T05:54:17;17.90;99.90
30371;DHT22;17164;48.590;11.410;2023-07-29T05:56:43;17.90;99.90
30371;DHT22;17164;48.590;11.410;2023-07-29T05:59:08;17.90;99.90
30371;DHT22;17164;48.590;11.410;2023-07-29T06:01:34;18.00;99.90
30371;DHT22;17164;48.590;11.410;2023-07-29T06:04:00;18.00;99.90
30371;DHT22;17164;48.590;11.410;2023-07-29T06:06:26;18.00;99.90
30371;DHT22;17164;48.590;11.410;2023-07-29T06:08:52;18.10;99.90
30371;DHT22;17164;48.590;11.410;2023-07-29T06:11:17;18.10;99.90
30371;DHT22;17164;48.590;11.410;2023-07-29T06:13:43;18.20;99.90
30371;DHT22;17164;48.590;11.410;2023-07-29T06:16:09;18.30;99.90
30371;DHT22;17164;48.590;11.410;2023-07-29T06:18:34;18.30;99.90
30371;DHT22;17164;48.590;11.410;2023-07-29T06:21:00;18.30;99.90
30371;DHT22;17164;48.590;11.410;2023-07-29T06:23:26;18.30;99.90
30371;DHT22;17164;48.590;11.410;2023-07-29T06:25:51;18.30;99.90
30371;DHT22;17164;48.590;11.410;2023-07-29T06:28:17;18.40;99.90
30371;DHT22;17164;48.590;11.410;2023-07-29T06:30:42;18.40;99.90
30371;DHT22;17164;48.590;11.410;2023-07-29T06:33:08;18.40;99.90
30371;DHT22;17164;48.590;11.410;2023-07-29T06:35:34;18.40;99.90
30371;DHT22;17164;48.590;11.410;2023-07-29T06:38:00;18.40;99.90
30371;DHT22;17164;48.590;11.410;2023-07-29T06:40:25;18.30;99.90
30371;DHT22;17164;48.590;11.410;2023-07-29T06:42:51;18.30;99.90
30371;DHT22;17164;48.590;11.410;2023-07-29T06:45:17;18.30;99.90
30371;DHT22;17164;48.590;11.410;2023-07-29T06:47:42;18.30;99.90
30371;DHT22;17164;48.590;11.410;2023-07-29T06:50:08;18.40;99.90
30371;DHT22;17164;48.590;11.410;2023-07-29T06:52:34;18.40;99.90
30371;DHT22;17164;48.590;11.410;2023-07-29T06:55:00;18.40;99.90
30371;DHT22;17164;48.590;11.410;2023-07-29T06:57:25;18.40;99.90
30371;DHT22;17164;48.590;11.410;2023-07-29T06:59:51;18.50;99.90
30371;DHT22;17164;48.590;11.410;2023-07-29T07:02:17;18.60;99.90
30371;DHT22;17164;48.590;11.410;2023-07-29T07:04:42;18.60;99.90
30371;DHT22;17164;48.590;11.410;2023-07-29T07:07:08;18.70;99.90
30371;DHT22;17164;48.590;11.410;2023-07-29T07:09:33;18.80;99.90
30371;DHT22;17164;48.590;11.410;2023-07-29T07:11:59;18.90;99.90
30371;DHT22;17164;48.590;11.410;2023-07-29T07:14:24;18.90;99.90
30371;DHT22;17164;48.590;11.410;2023-07-29T07:16:51;18.90;99.90
30371;DHT22;17164;48.590;11.410;2023-07-29T07:19:16;18.90;99.90
30371;DHT22;17164;48.590;11.410;2023-07-29T07:21:42;18.80;99.90
30371;DHT22;17164;48.590;11.410;2023-07-29T07:24:07;18.80;99.90
30371;DHT22;17164;48.590;11.410;2023-07-29T07:26:33;18.80;99.90
30371;DHT22;17164;48.590;11.410;2023-07-29T07:28:59;18.70;99.90
30371;DHT22;17164;48.590;11.410;2023-07-29T07:31:24;18.80;99.90
30371;DHT22;17164;48.590;11.410;2023-07-29T07:33:50;18.80;99.90
30371;DHT22;17164;48.590;11.410;2023-07-29T07:36:15;18.90;99.90
30371;DHT22;17164;48.590;11.410;2023-07-29T07:38:41;19.00;99.90
30371;DHT22;17164;48.590;11.410;2023-07-29T07:41:07;19.10;99.90
30371;DHT22;17164;48.590;11.410;2023-07-29T07:43:32;19.30;99.90
30371;DHT22;17164;48.590;11.410;2023-07-29T07:45:59;19.40;99.90
30371;DHT22;17164;48.590;11.410;2023-07-29T07:48:26;19.50;99.90
30371;DHT22;17164;48.590;11.410;2023-07-29T07:50:52;19.60;99.90
30371;DHT22;17164;48.590;11.410;2023-07-29T07:53:17;19.70;99.90
30371;DHT22;17164;48.590;11.410;2023-07-29T07:55:43;19.80;99.90
30371;DHT22;17164;48.590;11.410;2023-07-29T07:58:08;19.80;99.90
30371;DHT22;17164;48.590;11.410;2023-07-29T08:00:34;19.80;99.90
30371;DHT22;17164;48.590;11.410;2023-07-29T08:03:00;19.80;99.90
30371;DHT22;17164;48.590;11.410;2023-07-29T08:05:26;19.70;99.90
30371;DHT22;17164;48.590;11.410;2023-07-29T08:07:51;19.60;99.90
30371;DHT22;17164;48.590;11.410;2023-07-29T08:10:17;19.50;99.90
30371;DHT22;17164;48.590;11.410;2023-07-29T08:12:43;19.30;99.90
30371;DHT22;17164;48.590;11.410;2023-07-29T08:15:08;19.30;99.90
30371;DHT22;17164;48.590;11.410;2023-07-29T08:17:34;19.30;99.90
30371;DHT22;17164;48.590;11.410;2023-07-29T08:20:00;19.30;99.90
30371;DHT22;17164;48.590;11.410;2023-07-29T08:22:25;19.40;99.90
30371;DHT22;17164;48.590;11.410;2023-07-29T08:24:51;19.50;99.90
30371;DHT22;17164;48.590;11.410;2023-07-29T08:27:16;19.50;99.90
30371;DHT22;17164;48.590;11.410;2023-07-29T08:29:42;19.60;99.90
30371;DHT22;17164;48.590;11.410;2023-07-29T08:32:08;19.70;99.90
30371;DHT22;17164;48.590;11.410;2023-07-29T08:34:34;19.80;99.90
30371;DHT22;17164;48.590;11.410;2023-07-29T08:37:00;19.90;99.90
30371;DHT22;17164;48.590;11.410;2023-07-29T08:39:25;20.00;99.90
30371;DHT22;17164;48.590;11.410;2023-07-29T08:42:06;20.10;99.90
30371;DHT22;17164;48.590;11.410;2023-07-29T08:44:44;20.20;99.90
30371;DHT22;17164;48.590;11.410;2023-07-29T08:47:11;20.20;99.90
30371;DHT22;17164;48.590;11.410;2023-07-29T08:49:39;20.30;99.90
30371;DHT22;17164;48.590;11.410;2023-07-29T08:52:06;20.40;99.90
30371;DHT22;17164;48.590;11.410;2023-07-29T08:54:32;20.40;99.90
30371;DHT22;17164;48.590;11.410;2023-07-29T08:56:59;20.40;99.90
30371;DHT22;17164;48.590;11.410;2023-07-29T08:59:26;20.50;99.90
30371;DHT22;17164;48.590;11.410;2023-07-29T09:01:54;20.60;99.90
30371;DHT22;17164;48.590;11.410;2023-07-29T09:04:22;20.60;99.90
30371;DHT22;17164;48.590;11.410;2023-07-29T09:06:50;20.70;99.90
30371;DHT22;17164;48.590;11.410;2023-07-29T09:09:16;20.70;99.90
30371;DHT22;17164;48.590;11.410;2023-07-29T09:11:41;20.90;99.90
30371;DHT22;17164;48.590;11.410;2023-07-29T09:14:07;21.00;99.90
30371;DHT22;17164;48.590;11.410;2023-07-29T09:16:33;21.20;99.90
30371;DHT22;17164;48.590;11.410;2023-07-29T09:19:03;21.40;99.90
30371;DHT22;17164;48.590;11.410;2023-07-29T09:21:29;21.50;99.90
30371;DHT22;17164;48.590;11.410;2023-07-29T09:23:55;21.60;99.90
30371;DHT22;17164;48.590;11.410;2023-07-29T09:26:26;21.70;99.90
30371;DHT22;17164;48.590;11.410;2023-07-29T09:28:53;21.80;99.90
30371;DHT22;17164;48.590;11.410;2023-07-29T09:31:21;22.00;99.90
30371;DHT22;17164;48.590;11.410;2023-07-29T09:33:47;22.10;99.90
30371;DHT22;17164;48.590;11.410;2023-07-29T09:36:12;22.30;99.90
30371;DHT22;17164;48.590;11.410;2023-07-29T09:38:38;22.50;99.90
30371;DHT22;17164;48.590;11.410;2023-07-29T09:41:04;22.50;99.90
30371;DHT22;17164;48.590;11.410;2023-07-29T09:43:32;22.40;99.90
30371;DHT22;17164;48.590;11.410;2023-07-29T09:46:02;22.20;99.90
30371;DHT22;17164;48.590;11.410;2023-07-29T09:48:32;22.20;99.90
30371;DHT22;17164;48.590;11.410;2023-07-29T09:50:57;22.30;99.90
30371;DHT22;17164;48.590;11.410;2023-07-29T09:53:24;22.50;99.90
30371;DHT22;17164;48.590;11.410;2023-07-29T09:55:50;22.70;99.90
30371;DHT22;17164;48.590;11.410;2023-07-29T09:58:26;22.80;99.90
30371;DHT22;17164;48.590;11.410;2023-07-29T10:00:52;22.80;99.90
30371;DHT22;17164;48.590;11.410;2023-07-29T10:03:20;22.80;99.90
30371;DHT22;17164;48.590;11.410;2023-07-29T10:05:46;22.80;99.90
30371;DHT22;17164;48.590;11.410;2023-07-29T10:08:13;22.80;99.90
30371;DHT22;17164;48.590;11.410;2023-07-29T10:10:41;22.70;99.90
30371;DHT22;17164;48.590;11.410;2023-07-29T10:13:07;22.50;99.90
30371;DHT22;17164;48.590;11.410;2023-07-29T10:15:34;22.50;99.90
30371;DHT22;17164;48.590;11.410;2023-07-29T10:18:01;22.40;99.90
30371;DHT22;17164;48.590;11.410;2023-07-29T10:20:28;22.30;99.90
30371;DHT22;17164;48.590;11.410;2023-07-29T10:22:56;22.30;99.90
30371;DHT22;17164;48.590;11.410;2023-07-29T10:25:24;22.30;99.90
30371;DHT22;17164;48.590;11.410;2023-07-29T10:27:56;22.30;99.90
30371;DHT22;17164;48.590;11.410;2023-07-29T10:30:24;22.20;99.90
30371;DHT22;17164;48.590;11.410;2023-07-29T10:32:52;22.20;99.90
30371;DHT22;17164;48.590;11.410;2023-07-29T10:35:18;22.10;99.90
30371;DHT22;17164;48.590;11.410;2023-07-29T10:37:44;22.10;99.90
30371;DHT22;17164;48.590;11.410;2023-07-29T10:40:11;22.00;99.90
30371;DHT22;17164;48.590;11.410;2023-07-29T10:42:38;22.00;99.90
30371;DHT22;17164;48.590;11.410;2023-07-29T10:45:24;21.90;99.90
30371;DHT22;17164;48.590;11.410;2023-07-29T10:47:50;21.90;99.90
30371;DHT22;17164;48.590;11.410;2023-07-29T10:50:20;21.80;99.90
30371;DHT22;17164;48.590;11.410;2023-07-29T10:52:51;21.70;99.90
30371;DHT22;17164;48.590;11.410;2023-07-29T10:55:35;21.80;99.90
30371;DHT22;17164;48.590;11.410;2023-07-29T10:58:07;21.80;99.90
30371;DHT22;17164;48.590;11.410;2023-07-29T11:00:33;21.80;99.90
30371;DHT22;17164;48.590;11.410;2023-07-29T11:03:04;22.00;99.90
30371;DHT22;17164;48.590;11.410;2023-07-29T11:05:52;22.30;99.90
30371;DHT22;17164;48.590;11.410;2023-07-29T11:10:57;23.40;99.90
30371;DHT22;17164;48.590;11.410;2023-07-29T11:13:26;24.00;99.90
30371;DHT22;17164;48.590;11.410;2023-07-29T11:15:54;24.40;99.90
30371;DHT22;17164;48.590;11.410;2023-07-29T11:18:20;24.70;99.90
30371;DHT22;17164;48.590;11.410;2023-07-29T11:20:46;25.10;99.90
30371;DHT22;17164;48.590;11.410;2023-07-29T11:23:13;25.40;99.90
30371;DHT22;17164;48.590;11.410;2023-07-29T11:25:39;25.60;99.90
30371;DHT22;17164;48.590;11.410;2023-07-29T11:28:04;25.80;99.90
30371;DHT22;17164;48.590;11.410;2023-07-29T11:30:30;25.70;99.90
30371;DHT22;17164;48.590;11.410;2023-07-29T11:32:57;25.70;99.90
30371;DHT22;17164;48.590;11.410;2023-07-29T11:35:24;25.50;99.90
30371;DHT22;17164;48.590;11.410;2023-07-29T11:37:52;25.40;99.90
30371;DHT22;17164;48.590;11.410;2023-07-29T11:40:20;25.30;99.90
30371;DHT22;17164;48.590;11.410;2023-07-29T11:42:46;25.30;99.90
30371;DHT22;17164;48.590;11.410;2023-07-29T11:45:14;25.30;99.90
30371;DHT22;17164;48.590;11.410;2023-07-29T11:47:39;25.50;99.90
30371;DHT22;17164;48.590;11.410;2023-07-29T11:50:07;25.70;99.90
30371;DHT22;17164;48.590;11.410;2023-07-29T11:52:41;25.90;99.90
30371;DHT22;17164;48.590;11.410;2023-07-29T11:55:08;26.10;99.90
30371;DHT22;17164;48.590;11.410;2023-07-29T11:57:35;26.20;99.90
30371;DHT22;17164;48.590;11.410;2023-07-29T12:00:06;26.30;99.90
30371;DHT22;17164;48.590;11.410;2023-07-29T12:02:41;26.20;99.90
30371;DHT22;17164;48.590;11.410;2023-07-29T12:05:10;26.10;99.90
30371;DHT22;17164;48.590;11.410;2023-07-29T12:07:38;25.90;99.90
30371;DHT22;17164;48.590;11.410;2023-07-29T12:10:05;25.60;99.90
30371;DHT22;17164;48.590;11.410;2023-07-29T12:12:31;25.30;99.90
30371;DHT22;17164;48.590;11.410;2023-07-29T12:14:57;25.10;99.90
30371;DHT22;17164;48.590;11.410;2023-07-29T12:17:23;24.90;99.90
30371;DHT22;17164;48.590;11.410;2023-07-29T12:19:48;24.80;99.90
30371;DHT22;17164;48.590;11.410;2023-07-29T12:22:18;24.60;99.90
30371;DHT22;17164;48.590;11.410;2023-07-29T12:24:44;24.60;99.90
30371;DHT22;17164;48.590;11.410;2023-07-29T12:27:13;24.80;99.90
30371;DHT22;17164;48.590;11.410;2023-07-29T12:29:44;25.00;99.90
30371;DHT22;17164;48.590;11.410;2023-07-29T12:32:11;25.20;99.90
30371;DHT22;17164;48.590;11.410;2023-07-29T12:34:38;25.20;99.90
30371;DHT22;17164;48.590;11.410;2023-07-29T12:37:05;25.10;99.90
30371;DHT22;17164;48.590;11.410;2023-07-29T12:39:40;24.90;99.90
30371;DHT22;17164;48.590;11.410;2023-07-29T12:42:09;24.60;99.90
30371;DHT22;17164;48.590;11.410;2023-07-29T12:44:36;24.20;99.90
30371;DHT22;17164;48.590;11.410;2023-07-29T12:47:04;23.90;99.90
30371;DHT22;17164;48.590;11.410;2023-07-29T12:49:30;23.70;99.90
30371;DHT22;17164;48.590;11.410;2023-07-29T12:51:56;23.60;99.90
30371;DHT22;17164;48.590;11.410;2023-07-29T12:54:22;23.60;99.90
30371;DHT22;17164;48.590;11.410;2023-07-29T12:56:48;23.60;99.90
30371;DHT22;17164;48.590;11.410;2023-07-29T12:59:14;23.80;99.90
30371;DHT22;17164;48.590;11.410;2023-07-29T13:01:40;23.90;99.90
30371;DHT22;17164;48.590;11.410;2023-07-29T13:04:05;24.10;99.90
30371;DHT22;17164;48.590;11.410;2023-07-29T13:06:31;24.30;99.90
30371;DHT22;17164;48.590;11.410;2023-07-29T13:08:56;24.30;99.90
30371;DHT22;17164;48.590;11.410;2023-07-29T13:11:22;24.30;99.90
30371;DHT22;17164;48.590;11.410;2023-07-29T13:13:48;24.20;99.90
30371;DHT22;17164;48.590;11.410;2023-07-29T13:16:13;24.00;99.90
30371;DHT22;17164;48.590;11.410;2023-07-29T13:18:39;23.80;99.90
30371;DHT22;17164;48.590;11.410;2023-07-29T13:21:06;23.60;99.90
30371;DHT22;17164;48.590;11.410;2023-07-29T13:23:31;23.60;99.90
30371;DHT22;17164;48.590;11.410;2023-07-29T13:25:57;23.50;99.90
30371;DHT22;17164;48.590;11.410;2023-07-29T13:28:23;23.50;99.90
30371;DHT22;17164;48.590;11.410;2023-07-29T13:30:49;23.50;99.90
30371;DHT22;17164;48.590;11.410;2023-07-29T13:33:14;23.50;99.90
30371;DHT22;17164;48.590;11.410;2023-07-29T13:35:40;23.50;99.90
30371;DHT22;17164;48.590;11.410;2023-07-29T13:38:05;23.40;99.90
30371;DHT22;17164;48.590;11.410;2023-07-29T13:40:31;23.40;99.90
30371;DHT22;17164;48.590;11.410;2023-07-29T13:42:57;23.40;99.90
30371;DHT22;17164;48.590;11.410;2023-07-29T13:45:23;23.50;99.90
30371;DHT22;17164;48.590;11.410;2023-07-29T13:47:49;23.50;99.90
30371;DHT22;17164;48.590;11.410;2023-07-29T13:50:16;23.40;99.90
30371;DHT22;17164;48.590;11.410;2023-07-29T13:52:41;23.40;99.90
30371;DHT22;17164;48.590;11.410;2023-07-29T13:55:07;23.40;99.90
30371;DHT22;17164;48.590;11.410;2023-07-29T13:57:33;23.40;99.90
30371;DHT22;17164;48.590;11.410;2023-07-29T13:59:59;23.50;99.90
30371;DHT22;17164;48.590;11.410;2023-07-29T14:02:25;23.60;99.90
30371;DHT22;17164;48.590;11.410;2023-07-29T14:04:54;23.70;99.90
30371;DHT22;17164;48.590;11.410;2023-07-29T14:07:19;23.70;99.90
30371;DHT22;17164;48.590;11.410;2023-07-29T14:09:45;23.70;99.90
30371;DHT22;17164;48.590;11.410;2023-07-29T14:12:11;23.70;99.90
30371;DHT22;17164;48.590;11.410;2023-07-29T14:14:38;23.80;99.90
30371;DHT22;17164;48.590;11.410;2023-07-29T14:17:04;23.80;99.90
30371;DHT22;17164;48.590;11.410;2023-07-29T14:19:31;23.90;99.90
30371;DHT22;17164;48.590;11.410;2023-07-29T14:21:58;23.90;99.90
30371;DHT22;17164;48.590;11.410;2023-07-29T14:24:23;24.00;99.90
30371;DHT22;17164;48.590;11.410;2023-07-29T14:26:49;24.10;99.90
30371;DHT22;17164;48.590;11.410;2023-07-29T14:29:15;24.10;99.90
30371;DHT22;17164;48.590;11.410;2023-07-29T14:31:40;24.10;99.90
30371;DHT22;17164;48.590;11.410;2023-07-29T14:34:06;24.20;99.90
30371;DHT22;17164;48.590;11.410;2023-07-29T14:36:31;24.30;99.90
30371;DHT22;17164;48.590;11.410;2023-07-29T14:38:57;24.40;99.90
30371;DHT22;17164;48.590;11.410;2023-07-29T14:41:22;24.50;99.90
30371;DHT22;17164;48.590;11.410;2023-07-29T14:43:48;24.60;99.90
30371;DHT22;17164;48.590;11.410;2023-07-29T14:46:14;24.80;99.90
30371;DHT22;17164;48.590;11.410;2023-07-29T14:48:39;24.90;99.90
30371;DHT22;17164;48.590;11.410;2023-07-29T14:51:05;25.00;99.90
30371;DHT22;17164;48.590;11.410;2023-07-29T14:53:30;25.10;99.90
30371;DHT22;17164;48.590;11.410;2023-07-29T14:55:56;25.30;99.90
30371;DHT22;17164;48.590;11.410;2023-07-29T14:58:22;25.50;99.90
30371;DHT22;17164;48.590;11.410;2023-07-29T15:00:48;25.60;99.90
30371;DHT22;17164;48.590;11.410;2023-07-29T15:03:14;25.70;99.90
30371;DHT22;17164;48.590;11.410;2023-07-29T15:05:39;25.70;99.90
30371;DHT22;17164;48.590;11.410;2023-07-29T15:08:06;25.70;99.90
30371;DHT22;17164;48.590;11.410;2023-07-29T15:10:31;25.70;99.90
30371;DHT22;17164;48.590;11.410;2023-07-29T15:12:57;25.60;99.90
30371;DHT22;17164;48.590;11.410;2023-07-29T15:15:23;25.60;99.90
30371;DHT22;17164;48.590;11.410;2023-07-29T15:17:48;25.50;99.90
30371;DHT22;17164;48.590;11.410;2023-07-29T15:20:14;25.30;99.90